createdAt,value
2023-11-10T00:01:21.809Z,2.50
2023-11-10T00:03:50.284Z,3.07
2023-11-10T00:06:18.785Z,3.13
2023-11-10T00:08:48.638Z,2.77
2023-11-10T00:11:17.702Z,2.27
2023-11-10T00:13:46.120Z,3.53
2023-11-10T00:16:15.638Z,2.57
2023-11-10T00:18:45.596Z,3.10
2023-11-10T00:21:20.683Z,4.47
2023-11-10T00:23:50.415Z,3.37
2023-11-10T00:26:22.088Z,4.27
2023-11-10T00:28:50.496Z,3.43
2023-11-10T00:31:19.866Z,3.97
2023-11-10T00:33:51.314Z,4.70
2023-11-10T00:36:20.468Z,2.93
2023-11-10T00:38:50.309Z,3.03
2023-11-10T00:41:20.458Z,2.60
2023-11-10T00:43:50.099Z,3.00
2023-11-10T00:46:18.664Z,6.57
2023-11-10T00:48:46.996Z,2.60
2023-11-10T00:51:15.642Z,3.50
2023-11-10T00:53:44.197Z,4.60
2023-11-10T00:56:14.107Z,4.13
2023-11-10T00:58:42.918Z,3.27
2023-11-10T01:01:11.914Z,3.73
2023-11-10T01:03:40.413Z,3.83
2023-11-10T01:06:09.394Z,4.70
2023-11-10T01:08:37.894Z,3.20
2023-11-10T01:11:06.568Z,3.47
2023-11-10T01:13:41.735Z,3.17
2023-11-10T01:16:10.272Z,5.20
2023-11-10T01:18:39.502Z,3.07
2023-11-10T01:21:08.800Z,3.10
2023-11-10T01:23:37.422Z,3.10
2023-11-10T01:26:07.308Z,2.70
2023-11-10T01:28:39.108Z,3.33
2023-11-10T01:31:07.410Z,4.00
2023-11-10T01:33:40.696Z,3.10
2023-11-10T01:36:10.193Z,2.93
2023-11-10T01:38:38.907Z,3.43
2023-11-10T01:41:07.728Z,4.50
2023-11-10T01:43:37.544Z,3.43
2023-11-10T01:46:07.916Z,4.13
2023-11-10T01:48:37.969Z,3.20
2023-11-10T01:51:07.036Z,3.40
2023-11-10T01:53:35.593Z,4.90
2023-11-10T01:56:03.877Z,3.97
2023-11-10T01:58:32.252Z,3.87
2023-11-10T02:01:02.577Z,5.33
2023-11-10T02:03:32.262Z,3.50
2023-11-10T02:06:01.839Z,3.67
2023-11-10T02:08:31.194Z,4.90
2023-11-10T02:10:59.733Z,3.53
2023-11-10T02:13:30.963Z,3.40
2023-11-10T02:15:59.561Z,4.20
2023-11-10T02:18:29.259Z,4.87
2023-11-10T02:20:57.676Z,4.20
2023-11-10T02:23:27.829Z,5.93
2023-11-10T02:25:57.631Z,3.70
2023-11-10T02:28:25.985Z,4.67
2023-11-10T02:30:55.050Z,5.63
2023-11-10T02:33:23.456Z,4.30
2023-11-10T02:35:52.153Z,3.07
2023-11-10T02:38:20.533Z,4.37
2023-11-10T02:40:49.086Z,4.50
2023-11-10T02:43:19.644Z,5.03
2023-11-10T02:45:48.257Z,3.83
2023-11-10T02:48:19.218Z,5.40
2023-11-10T02:50:48.766Z,4.20
2023-11-10T02:53:17.267Z,6.07
2023-11-10T02:55:45.726Z,6.17
2023-11-10T02:58:14.336Z,5.33
2023-11-10T03:00:44.564Z,5.40
2023-11-10T03:03:19.325Z,5.07
2023-11-10T03:05:47.874Z,3.87
2023-11-10T03:08:17.532Z,5.33
2023-11-10T03:10:45.989Z,5.10
2023-11-10T03:13:14.715Z,7.40
2023-11-10T03:15:44.955Z,7.37
2023-11-10T03:18:13.596Z,4.90
2023-11-10T03:20:43.800Z,5.67
2023-11-10T03:23:12.224Z,6.77
2023-11-10T03:25:43.293Z,4.77
2023-11-10T03:28:11.634Z,5.00
2023-11-10T03:30:40.160Z,6.17
2023-11-10T03:33:09.783Z,6.37
2023-11-10T03:35:38.705Z,6.40
2023-11-10T03:38:07.043Z,4.90
2023-11-10T03:40:35.494Z,4.47
2023-11-10T03:43:03.877Z,6.37
2023-11-10T03:45:32.482Z,5.80
2023-11-10T03:48:04.294Z,4.17
2023-11-10T03:50:34.506Z,4.13
2023-11-10T03:53:02.808Z,5.40
2023-11-10T03:55:31.271Z,4.73
2023-11-10T03:57:59.773Z,4.60
2023-11-10T04:00:38.966Z,4.60
2023-11-10T04:03:16.935Z,4.37
2023-11-10T04:05:47.709Z,5.47
2023-11-10T04:08:16.473Z,6.03
2023-11-10T04:10:45.087Z,6.93
2023-11-10T04:13:13.492Z,5.47
2023-11-10T04:15:42.872Z,5.47
2023-11-10T04:18:12.463Z,6.27
2023-11-10T04:20:46.462Z,7.83
2023-11-10T04:23:16.979Z,6.27
2023-11-10T04:25:45.484Z,7.07
2023-11-10T04:28:13.959Z,6.90
2023-11-10T04:30:42.678Z,7.20
2023-11-10T04:33:11.209Z,8.03
2023-11-10T04:35:39.698Z,6.70
2023-11-10T04:38:09.944Z,6.47
2023-11-10T04:40:40.114Z,7.77
2023-11-10T04:43:11.106Z,6.37
2023-11-10T04:45:39.529Z,6.63
2023-11-10T04:48:11.363Z,7.03
2023-11-10T04:50:41.591Z,6.80
2023-11-10T04:53:10.065Z,6.57
2023-11-10T04:55:39.872Z,6.30
2023-11-10T04:58:08.637Z,8.53
2023-11-10T05:00:37.437Z,7.07
2023-11-10T05:03:07.524Z,6.40
2023-11-10T05:05:37.528Z,7.90
2023-11-10T05:08:09.669Z,8.20
2023-11-10T05:10:40.433Z,6.37
2023-11-10T05:13:09.066Z,7.00
2023-11-10T05:15:40.086Z,7.20
2023-11-10T05:18:09.038Z,7.50
2023-11-10T05:20:37.918Z,7.43
2023-11-10T05:23:06.347Z,10.80
2023-11-10T05:25:34.710Z,6.60
2023-11-10T05:28:07.551Z,7.17
2023-11-10T05:30:35.989Z,7.67
2023-11-10T05:33:07.860Z,6.23
2023-11-10T05:35:37.208Z,7.10
2023-11-10T05:38:08.787Z,9.27
2023-11-10T05:40:37.212Z,6.97
2023-11-10T05:43:08.031Z,7.93
2023-11-10T05:45:36.558Z,10.90
2023-11-10T05:48:05.870Z,6.97
2023-11-10T05:50:34.644Z,6.93
2023-11-10T05:53:03.489Z,8.00
2023-11-10T05:55:33.953Z,7.07
2023-11-10T05:58:02.373Z,7.73
2023-11-10T06:00:32.256Z,5.90
2023-11-10T06:03:04.667Z,8.60
2023-11-10T06:05:33.061Z,5.60
2023-11-10T06:08:01.872Z,6.23
2023-11-10T06:10:30.277Z,6.53
2023-11-10T06:12:58.654Z,11.40
2023-11-10T06:15:27.311Z,7.33
2023-11-10T06:17:57.225Z,7.20
2023-11-10T06:20:26.054Z,10.03
2023-11-10T06:22:54.494Z,6.60
2023-11-10T06:25:22.826Z,9.27
2023-11-10T06:27:51.259Z,6.23
2023-11-10T06:30:20.591Z,7.00
2023-11-10T06:32:49.525Z,7.80
2023-11-10T06:35:19.345Z,8.23
2023-11-10T06:37:47.732Z,7.70
2023-11-10T06:40:16.361Z,8.87
2023-11-10T06:42:45.953Z,6.83
2023-11-10T06:45:18.059Z,7.07
2023-11-10T06:47:46.481Z,6.03
2023-11-10T06:50:14.933Z,7.60
2023-11-10T06:52:44.983Z,8.87
2023-11-10T06:55:16.149Z,7.37
2023-11-10T06:57:45.995Z,6.40
2023-11-10T07:00:16.022Z,6.87
2023-11-10T07:02:44.725Z,5.90
2023-11-10T07:05:13.360Z,5.93
2023-11-10T07:07:41.954Z,6.07
2023-11-10T07:10:12.717Z,8.83
2023-11-10T07:12:41.192Z,6.57
2023-11-10T07:15:11.323Z,5.90
2023-11-10T07:17:40.276Z,7.03
2023-11-10T07:20:12.521Z,6.50
2023-11-10T07:22:41.090Z,10.03
2023-11-10T07:25:11.579Z,5.67
2023-11-10T07:27:40.251Z,6.10
2023-11-10T07:30:11.801Z,7.67
2023-11-10T07:32:40.435Z,11.50
2023-11-10T07:35:10.185Z,5.30
2023-11-10T07:37:38.546Z,6.30
2023-11-10T07:40:10.168Z,5.07
2023-11-10T07:42:39.901Z,5.17
2023-11-10T07:45:15.556Z,5.07
2023-11-10T07:47:44.653Z,5.60
2023-11-10T07:50:14.566Z,5.73
2023-11-10T07:52:44.012Z,5.87
2023-11-10T07:55:12.910Z,4.77
2023-11-10T07:57:44.432Z,5.30
2023-11-10T08:00:15.207Z,4.33
2023-11-10T08:02:43.850Z,5.47
2023-11-10T08:05:12.683Z,5.43
2023-11-10T08:07:41.146Z,4.03
2023-11-10T08:10:11.340Z,4.93
2023-11-10T08:12:40.500Z,7.40
2023-11-10T08:15:12.135Z,5.60
2023-11-10T08:17:41.012Z,4.07
2023-11-10T08:20:12.224Z,5.13
2023-11-10T08:22:40.585Z,6.37
2023-11-10T08:25:13.189Z,4.37
2023-11-10T08:27:42.041Z,5.40
2023-11-10T08:30:14.505Z,7.03
2023-11-10T08:32:43.225Z,6.57
2023-11-10T08:35:11.976Z,4.77
2023-11-10T08:37:44.417Z,4.87
2023-11-10T08:40:13.734Z,4.63
2023-11-10T08:42:43.603Z,4.57
2023-11-10T08:45:16.294Z,5.03
2023-11-10T08:47:45.438Z,5.93
2023-11-10T08:50:14.772Z,5.77
2023-11-10T08:52:43.723Z,5.00
2023-11-10T08:55:13.129Z,4.57
2023-11-10T08:57:42.001Z,5.00
2023-11-10T09:00:18.351Z,9.27
2023-11-10T09:02:47.705Z,6.43
2023-11-10T09:05:16.288Z,5.70
2023-11-10T09:07:44.909Z,5.50
2023-11-10T09:10:14.178Z,5.67
2023-11-10T09:12:43.698Z,4.17
2023-11-10T09:15:15.624Z,4.83
2023-11-10T09:17:45.200Z,5.73
2023-11-10T09:20:17.213Z,4.73
2023-11-10T09:22:46.004Z,5.73
2023-11-10T09:25:17.879Z,5.77
2023-11-10T09:27:47.016Z,6.73
2023-11-10T09:30:17.966Z,4.43
2023-11-10T09:32:46.318Z,4.83
2023-11-10T09:35:16.180Z,4.60
2023-11-10T09:37:47.624Z,6.10
2023-11-10T09:40:20.857Z,6.87
2023-11-10T09:42:50.001Z,6.00
2023-11-10T09:45:23.355Z,4.10
2023-11-10T09:47:54.688Z,3.80
2023-11-10T09:50:27.410Z,4.40
2023-11-10T09:52:58.146Z,2.90
2023-11-10T09:55:28.329Z,3.33
2023-11-10T09:57:57.573Z,3.30
2023-11-10T10:00:28.032Z,3.43
2023-11-10T10:02:56.624Z,3.90
2023-11-10T10:05:25.537Z,3.13
2023-11-10T10:07:53.900Z,2.67
2023-11-10T10:10:26.140Z,4.00
2023-11-10T10:12:54.587Z,2.60
2023-11-10T10:15:33.194Z,4.40
2023-11-10T10:18:10.811Z,3.70
2023-11-10T10:20:41.554Z,2.47
2023-11-10T10:23:13.851Z,3.60
2023-11-10T10:25:42.440Z,2.63
2023-11-10T10:28:11.136Z,2.30
2023-11-10T10:30:42.652Z,2.57
2023-11-10T10:33:11.850Z,2.40
2023-11-10T10:35:40.503Z,2.33
2023-11-10T10:38:11.454Z,2.10
2023-11-10T10:40:40.655Z,2.40
2023-11-10T10:43:09.629Z,2.83
2023-11-10T10:45:40.420Z,1.87
2023-11-10T10:48:10.226Z,1.50
2023-11-10T10:50:39.657Z,1.80
2023-11-10T10:53:10.117Z,1.93
2023-11-10T10:55:42.063Z,3.20
2023-11-10T10:58:10.927Z,1.40
2023-11-10T11:00:40.943Z,1.60
2023-11-10T11:03:30.361Z,1.30
2023-11-10T11:06:16.112Z,2.30
2023-11-10T11:09:23.060Z,2.60
2023-11-10T11:12:27.264Z,1.10
2023-11-10T11:15:01.519Z,1.57
2023-11-10T11:17:57.082Z,1.13
2023-11-10T11:20:25.937Z,0.80
2023-11-10T11:22:55.150Z,0.70
2023-11-10T11:25:24.641Z,1.00
2023-11-10T11:28:00.483Z,0.60
2023-11-10T11:30:37.626Z,0.50
2023-11-10T11:33:11.426Z,0.60
2023-11-10T11:35:48.614Z,11.37
2023-11-10T11:38:27.860Z,11.70
2023-11-10T11:40:59.097Z,11.50
2023-11-10T11:43:28.058Z,3.63
2023-11-10T11:45:57.551Z,6.80
2023-11-10T11:48:27.333Z,5.33
2023-11-10T11:50:58.212Z,7.53
2023-11-10T11:53:27.153Z,10.20
2023-11-10T11:55:56.629Z,12.17
2023-11-10T11:58:26.933Z,2.80
2023-11-10T12:00:55.692Z,2.00
2023-11-10T12:03:24.255Z,0.93
2023-11-10T12:05:54.462Z,1.20
2023-11-10T12:08:23.535Z,1.90
2023-11-10T12:10:51.987Z,0.63
2023-11-10T12:13:22.246Z,0.90
2023-11-10T12:15:50.912Z,0.60
2023-11-10T12:18:19.963Z,0.77
2023-11-10T12:20:49.247Z,0.60
2023-11-10T12:23:19.680Z,0.80
2023-11-10T12:25:49.325Z,1.43
2023-11-10T12:28:17.695Z,0.50
2023-11-10T12:30:47.417Z,0.70
2023-11-10T12:33:17.825Z,0.80
2023-11-10T12:35:47.755Z,1.57
2023-11-10T12:38:16.093Z,0.70
2023-11-10T12:40:45.794Z,0.63
2023-11-10T12:43:14.375Z,0.90
2023-11-10T12:45:42.862Z,1.30
2023-11-10T12:48:15.766Z,0.53
2023-11-10T12:50:48.538Z,1.30
2023-11-10T12:53:20.358Z,0.60
2023-11-10T12:55:50.062Z,1.57
2023-11-10T12:58:18.413Z,0.93
2023-11-10T13:00:48.367Z,0.80
2023-11-10T13:03:16.814Z,0.70
2023-11-10T13:05:45.483Z,1.20
2023-11-10T13:08:14.022Z,1.53
2023-11-10T13:10:42.564Z,1.13
2023-11-10T13:13:12.418Z,0.73
2023-11-10T13:15:40.812Z,1.03
2023-11-10T13:18:09.161Z,1.57
2023-11-10T13:20:38.356Z,0.60
2023-11-10T13:23:08.008Z,1.17
2023-11-10T13:25:37.605Z,0.63
2023-11-10T13:28:09.051Z,0.60
2023-11-10T13:30:38.796Z,1.97
2023-11-10T13:33:09.319Z,0.80
2023-11-10T13:35:38.697Z,1.33
2023-11-10T13:38:07.089Z,1.10
2023-11-10T13:40:35.492Z,0.60
2023-11-10T13:43:04.058Z,1.17
2023-11-10T13:45:33.511Z,0.50
2023-11-10T13:48:03.380Z,1.00
2023-11-10T13:50:31.676Z,1.37
2023-11-10T13:53:00.959Z,1.63
2023-11-10T13:55:29.324Z,0.93
2023-11-10T13:57:58.164Z,1.00
2023-11-10T14:00:28.083Z,1.13
2023-11-10T14:02:56.486Z,0.60
2023-11-10T14:05:26.225Z,0.90
2023-11-10T14:07:54.867Z,0.67
2023-11-10T14:10:26.412Z,1.77
2023-11-10T14:12:54.929Z,1.60
2023-11-10T14:15:24.584Z,2.33
2023-11-10T14:17:53.031Z,0.80
2023-11-10T14:20:22.503Z,0.80
2023-11-10T14:22:52.388Z,1.53
2023-11-10T14:25:23.559Z,1.33
2023-11-10T14:27:51.908Z,1.27
2023-11-10T14:30:20.305Z,1.10
2023-11-10T14:32:48.904Z,2.07
2023-11-10T14:35:17.618Z,1.10
2023-11-10T14:37:46.871Z,5.10
2023-11-10T14:40:18.501Z,1.50
2023-11-10T14:42:51.344Z,1.67
2023-11-10T14:45:23.310Z,2.00
2023-11-10T14:47:52.892Z,1.40
2023-11-10T14:50:36.054Z,1.37
2023-11-10T14:53:17.555Z,1.30
2023-11-10T14:55:49.135Z,3.80
2023-11-10T14:58:19.822Z,1.20
2023-11-10T15:00:48.917Z,1.27
2023-11-10T15:03:19.290Z,1.20
2023-11-10T15:05:47.881Z,0.97
2023-11-10T15:08:17.667Z,0.73
2023-11-10T15:10:50.119Z,0.87
2023-11-10T15:13:18.530Z,0.50
2023-11-10T15:15:49.746Z,0.70
2023-11-10T15:18:24.062Z,0.70
2023-11-10T15:20:53.058Z,1.00
2023-11-10T15:23:21.697Z,1.27
2023-11-10T15:25:51.510Z,1.90
2023-11-10T15:28:20.212Z,1.33
2023-11-10T15:30:48.937Z,2.07
2023-11-10T15:33:19.020Z,2.20
2023-11-10T15:35:48.273Z,3.27
2023-11-10T15:38:17.560Z,2.80
2023-11-10T15:40:46.839Z,2.67
2023-11-10T15:43:17.005Z,4.33
2023-11-10T15:45:46.479Z,3.07
2023-11-10T15:48:15.006Z,3.40
2023-11-10T15:50:43.620Z,3.40
2023-11-10T15:53:13.700Z,3.40
2023-11-10T15:55:42.913Z,2.27
2023-11-10T15:58:12.583Z,1.60
2023-11-10T16:00:43.045Z,1.80
2023-11-10T16:03:11.719Z,2.80
2023-11-10T16:05:43.233Z,1.07
2023-11-10T16:08:12.673Z,1.50
2023-11-10T16:10:41.102Z,1.93
2023-11-10T16:13:09.467Z,1.20
2023-11-10T16:15:39.230Z,4.43
2023-11-10T16:18:10.669Z,2.70
2023-11-10T16:20:39.046Z,3.90
2023-11-10T16:23:07.376Z,4.70
2023-11-10T16:25:36.090Z,5.30
2023-11-10T16:28:04.622Z,4.17
2023-11-10T16:30:33.713Z,4.53
2023-11-10T16:33:02.188Z,4.97
2023-11-10T16:35:31.968Z,4.00
2023-11-10T16:38:00.354Z,6.17
2023-11-10T16:40:28.925Z,2.27
2023-11-10T16:42:58.933Z,2.30
2023-11-10T16:45:27.697Z,2.70
2023-11-10T16:47:56.193Z,1.57
2023-11-10T16:50:24.849Z,1.67
2023-11-10T16:52:54.555Z,4.03
2023-11-10T16:55:24.419Z,3.87
2023-11-10T16:57:52.876Z,3.50
2023-11-10T17:00:27.053Z,1.93
2023-11-10T17:03:01.744Z,3.47
2023-11-10T17:05:31.116Z,1.33
2023-11-10T17:08:00.873Z,2.40
2023-11-10T17:10:33.714Z,0.83
2023-11-10T17:13:02.456Z,1.20
2023-11-10T17:15:31.028Z,2.03
2023-11-10T17:17:59.396Z,4.80
2023-11-10T17:20:27.951Z,7.63
2023-11-10T17:22:56.292Z,5.30
2023-11-10T17:25:26.010Z,5.63
2023-11-10T17:27:54.724Z,3.60
2023-11-10T17:30:23.190Z,5.27
2023-11-10T17:32:51.711Z,5.67
2023-11-10T17:35:20.370Z,5.40
2023-11-10T17:37:49.430Z,5.57
2023-11-10T17:40:18.297Z,3.13
2023-11-10T17:42:48.120Z,2.30
2023-11-10T17:45:18.540Z,2.20
2023-11-10T17:47:48.810Z,3.23
2023-11-10T17:50:19.982Z,4.80
2023-11-10T17:52:48.321Z,6.27
2023-11-10T17:55:17.074Z,5.50
2023-11-10T17:57:45.525Z,3.47
2023-11-10T18:00:16.952Z,4.10
2023-11-10T18:02:45.303Z,3.90
2023-11-10T18:05:13.890Z,6.93
2023-11-10T18:07:42.370Z,3.57
2023-11-10T18:10:11.579Z,2.97
2023-11-10T18:12:40.015Z,2.40
2023-11-10T18:15:11.035Z,4.17
2023-11-10T18:17:40.748Z,3.73
2023-11-10T18:20:11.122Z,5.07
2023-11-10T18:22:39.529Z,4.37
2023-11-10T18:25:09.894Z,3.73
2023-11-10T18:27:38.340Z,3.63
2023-11-10T18:30:10.410Z,3.80
2023-11-10T18:32:40.737Z,4.13
2023-11-10T18:35:12.343Z,2.67
2023-11-10T18:37:40.774Z,2.90
2023-11-10T18:40:11.849Z,2.30
2023-11-10T18:42:45.016Z,1.97
2023-11-10T18:45:14.195Z,1.97
2023-11-10T18:47:44.134Z,2.40
2023-11-10T18:50:15.135Z,7.93
2023-11-10T18:52:43.648Z,2.50
2023-11-10T18:55:13.027Z,4.10
2023-11-10T18:57:41.556Z,1.90
2023-11-10T19:00:11.712Z,2.47
2023-11-10T19:02:40.698Z,2.30
2023-11-10T19:05:10.919Z,3.57
2023-11-10T19:07:39.966Z,2.70
2023-11-10T19:10:11.701Z,4.80
2023-11-10T19:12:40.233Z,5.30
2023-11-10T19:15:09.984Z,8.57
2023-11-10T19:17:38.462Z,5.43
2023-11-10T19:20:11.030Z,4.30
2023-11-10T19:22:40.729Z,6.43
2023-11-10T19:25:10.719Z,3.50
2023-11-10T19:27:39.901Z,3.80
2023-11-10T19:30:10.008Z,4.20
2023-11-10T19:32:39.003Z,3.47
2023-11-10T19:35:10.280Z,4.40
2023-11-10T19:37:38.714Z,5.47
2023-11-10T19:40:10.964Z,3.20
2023-11-10T19:42:39.988Z,4.60
2023-11-10T19:45:11.384Z,3.33
2023-11-10T19:47:39.771Z,2.97
2023-11-10T19:50:10.843Z,3.13
2023-11-10T19:52:39.260Z,4.10
2023-11-10T19:55:12.840Z,3.10
2023-11-10T19:57:41.452Z,2.87
2023-11-10T20:02:47.743Z,3.53
2023-11-10T20:05:18.297Z,3.40
2023-11-10T20:07:46.692Z,2.37
2023-11-10T20:10:15.056Z,3.47
2023-11-10T20:12:43.448Z,2.93
2023-11-10T20:15:14.820Z,3.63
2023-11-10T20:17:43.430Z,3.23
2023-11-10T20:20:14.188Z,4.47
2023-11-10T20:22:43.967Z,3.37
2023-11-10T20:25:12.361Z,2.50
2023-11-10T20:27:40.842Z,3.67
2023-11-10T20:30:11.985Z,3.37
2023-11-10T20:32:41.148Z,2.80
2023-11-10T20:35:12.665Z,2.87
2023-11-10T20:37:41.063Z,4.20
2023-11-10T20:40:12.130Z,5.50
2023-11-10T20:42:40.956Z,5.73
2023-11-10T20:45:16.293Z,6.37
2023-11-10T20:47:44.788Z,5.27
2023-11-10T20:50:13.143Z,4.73
2023-11-10T20:52:41.903Z,4.57
2023-11-10T20:55:11.863Z,3.47
2023-11-10T20:57:40.237Z,2.37
2023-11-10T21:00:10.719Z,4.37
2023-11-10T21:02:40.235Z,4.43
2023-11-10T21:05:10.582Z,4.07
2023-11-10T21:07:39.505Z,2.97
2023-11-10T21:10:09.557Z,4.00
2023-11-10T21:12:42.469Z,2.40
2023-11-10T21:15:12.449Z,2.43
2023-11-10T21:17:40.894Z,3.13
2023-11-10T21:20:11.249Z,2.63
2023-11-10T21:22:39.767Z,2.33
2023-11-10T21:25:10.322Z,4.83
2023-11-10T21:27:41.862Z,2.83
2023-11-10T21:30:11.830Z,2.27
2023-11-10T21:32:41.421Z,2.80
2023-11-10T21:35:10.164Z,1.77
2023-11-10T21:37:38.534Z,3.83
2023-11-10T21:40:11.844Z,2.10
2023-11-10T21:42:41.593Z,2.67
2023-11-10T21:45:10.280Z,2.30
2023-11-10T21:47:38.688Z,2.40
2023-11-10T21:50:10.012Z,2.20
2023-11-10T21:52:38.585Z,2.00
2023-11-10T21:55:07.335Z,2.03
2023-11-10T21:57:36.596Z,2.87
2023-11-10T22:00:10.114Z,3.30
2023-11-10T22:02:38.607Z,2.43
2023-11-10T22:05:08.171Z,2.30
2023-11-10T22:07:39.384Z,2.17
2023-11-10T22:10:10.942Z,2.77
2023-11-10T22:12:40.711Z,2.07
2023-11-10T22:15:12.268Z,3.30
2023-11-10T22:17:40.940Z,2.73
2023-11-10T22:20:11.193Z,2.30
2023-11-10T22:22:41.020Z,4.60
2023-11-10T22:25:11.885Z,2.27
2023-11-10T22:27:41.318Z,2.03
2023-11-10T22:30:12.757Z,2.73
2023-11-10T22:32:41.753Z,4.00
2023-11-10T22:35:12.843Z,1.57
2023-11-10T22:37:41.346Z,2.50
2023-11-10T22:40:11.543Z,2.87
2023-11-10T22:42:41.911Z,2.33
2023-11-10T22:45:14.429Z,4.10
2023-11-10T22:47:44.392Z,2.30
2023-11-10T22:50:13.453Z,2.30
2023-11-10T22:52:41.818Z,4.33
2023-11-10T22:55:14.953Z,2.47
2023-11-10T22:57:46.508Z,2.23
2023-11-10T23:00:28.692Z,2.43
2023-11-10T23:02:57.735Z,2.27
2023-11-10T23:05:26.224Z,2.03
2023-11-10T23:07:55.655Z,3.20
2023-11-10T23:10:27.606Z,1.80
2023-11-10T23:12:59.406Z,2.90
2023-11-10T23:15:30.054Z,3.30
2023-11-10T23:17:59.882Z,2.63
2023-11-10T23:20:34.422Z,2.67
2023-11-10T23:23:04.994Z,5.27
2023-11-10T23:25:34.420Z,4.10
2023-11-10T23:28:04.469Z,2.70
2023-11-10T23:30:35.441Z,3.47
2023-11-10T23:33:04.285Z,3.10
2023-11-10T23:35:35.037Z,4.57
2023-11-10T23:38:03.534Z,1.70
2023-11-10T23:40:34.634Z,2.00
2023-11-10T23:43:03.156Z,2.77
2023-11-10T23:45:31.570Z,4.00
2023-11-10T23:48:01.461Z,2.37
2023-11-10T23:50:30.760Z,2.20
2023-11-10T23:52:59.293Z,2.00
2023-11-10T23:55:28.203Z,3.13
2023-11-10T23:57:56.510Z,2.07
